»·PEaware :: UAL427 KLAS-KSNA

UAL427 :: KLAS-KSNA

FLIGHT INFORMATION

Flight Status: Arrived
Operator:
United Airlines
More flights by this operator :: More flights under this callsign
Pilot: Ben F. (13029)
Aircraft: BOEING 737-300
(B733)
More flights by this aircraft type
Origin: KLAS McCarran Intl
United States
Destination: KSNA John Wayne-Orange Co
United States
More flights between these airports :: More routes between these airports
Route: +BOACH8 WHIGG FEYLA DSNEE4
File this flight plan on PilotEdge
Remarks: PBN / A1B3B4B5D3D4 DOF / 190203 REG / N372SB OPR / UAL PER / C RMK / TCAS SIMBRIEF
Altitude:
(Current/Filed)
30,000ft
Speed:
(Current/Filed)
449kts
Departed: 03-Feb-19 12:19 PM
Arrived: 03-Feb-19 01:06 PM
Distance/Time
Traveled:
196nm/0:47
Distance/Time
To Go:
Arrived

Flight Plot

Page will automatically refresh every two minutes.

Flight plan parsing failed; only flown route is shown


Map Options




Map Legend


Flown Route
Filed Route
Departure Airport
Arrival Airport
Navaid (VOR, NDB)
Fix

Horizontal Profiles

Position Reports

Time Latitude Longitude Heading Altitude Ground
Speed
03-Feb-19 11:50 36.083210 -115.136595 134 2118ft 0kts
03-Feb-19 11:51 36.083210 -115.136595 134 2118ft 0kts
03-Feb-19 11:52 36.083210 -115.136595 134 2118ft 0kts
03-Feb-19 11:53 36.083210 -115.136595 134 2118ft 0kts
03-Feb-19 11:54 36.083210 -115.136595 134 2118ft 0kts
03-Feb-19 11:55 36.083210 -115.136595 134 2118ft 0kts
03-Feb-19 11:56 36.083210 -115.136595 134 2118ft 0kts
03-Feb-19 11:57 36.083210 -115.136595 134 2118ft 0kts
03-Feb-19 11:58 36.083210 -115.136595 134 2118ft 0kts
03-Feb-19 11:59 36.083210 -115.136595 134 2118ft 0kts
03-Feb-19 12:00 36.083210 -115.136595 134 2118ft 0kts
03-Feb-19 12:01 36.083210 -115.136595 134 2118ft 0kts
03-Feb-19 12:02 36.083210 -115.136595 134 2118ft 0kts
03-Feb-19 12:03 36.083210 -115.136595 134 2118ft 0kts
03-Feb-19 12:04 36.083210 -115.136595 134 2118ft 0kts
03-Feb-19 12:05 36.083210 -115.136595 134 2118ft 0kts
03-Feb-19 12:06 36.083210 -115.136595 134 2118ft 0kts
03-Feb-19 12:07 36.083210 -115.136595 134 2118ft 0kts
03-Feb-19 12:08 36.083458 -115.136912 133 2118ft 2kts
03-Feb-19 12:09 36.083431 -115.137495 39 2118ft 1kts
03-Feb-19 12:10 36.083400 -115.137529 43 2118ft 0kts
03-Feb-19 12:11 36.083400 -115.137529 43 2118ft 0kts
03-Feb-19 12:12 36.084114 -115.134980 115 2118ft 16kts
03-Feb-19 12:13 36.079466 -115.133804 180 2118ft 18kts
03-Feb-19 12:14 36.079096 -115.133805 180 2118ft 0kts
03-Feb-19 12:15 36.078251 -115.132176 89 2118ft 21kts
03-Feb-19 12:16 36.077751 -115.121968 130 2118ft 22kts
03-Feb-19 12:17 36.076866 -115.121277 181 2118ft 4kts
03-Feb-19 12:18 36.076392 -115.130763 266 2118ft 112kts
03-Feb-19 12:19 36.076975 -115.183004 262 4140ft 150kts
03-Feb-19 12:20 36.075345 -115.233973 247 6325ft 147kts
03-Feb-19 12:21 36.045884 -115.266652 205 7046ft 150kts
03-Feb-19 12:22 35.996692 -115.289815 203 7027ft 249kts
03-Feb-19 12:23 35.927109 -115.306821 190 8602ft 264kts
03-Feb-19 12:24 35.853573 -115.314510 184 11758ft 274kts
03-Feb-19 12:25 35.777030 -115.305930 183 14343ft 294kts
03-Feb-19 12:26 35.693330 -115.299841 199 16902ft 298kts
03-Feb-19 12:27 35.631248 -115.357493 232 18957ft 287kts
03-Feb-19 12:28 35.577667 -115.429926 232 19049ft 286kts
03-Feb-19 12:29 35.523929 -115.502182 232 19256ft 293kts
03-Feb-19 12:30 35.463652 -115.583374 231 20463ft 340kts
03-Feb-19 12:31 35.400693 -115.668267 231 22667ft 350kts
03-Feb-19 12:32 35.334616 -115.757289 231 24832ft 359kts
03-Feb-19 12:33 35.266851 -115.848198 231 26859ft 365kts
03-Feb-19 12:34 35.198687 -115.937156 230 29293ft 354kts
03-Feb-19 12:35 35.130191 -116.023486 230 30084ft 354kts
03-Feb-19 12:36 35.062094 -116.109268 230 30061ft 352kts
03-Feb-19 12:37 34.993927 -116.194922 230 29955ft 351kts
03-Feb-19 12:38 34.926607 -116.279310 230 29970ft 351kts
03-Feb-19 12:39 34.859666 -116.363143 231 29956ft 349kts
03-Feb-19 12:40 34.792485 -116.448580 231 28223ft 354kts
03-Feb-19 12:41 34.723766 -116.535951 231 25758ft 350kts
03-Feb-19 12:42 34.651676 -116.615541 224 24352ft 347kts
03-Feb-19 12:43 34.575620 -116.689921 224 22321ft 346kts
03-Feb-19 12:44 34.500926 -116.763484 227 20425ft 342kts
03-Feb-19 12:45 34.433175 -116.842173 228 18558ft 341kts
03-Feb-19 12:46 34.366876 -116.919129 227 16746ft 334kts
03-Feb-19 12:47 34.302205 -116.993683 227 15011ft 318kts
03-Feb-19 12:48 34.234373 -117.057263 215 13702ft 297kts
03-Feb-19 12:49 34.159974 -117.108777 208 12937ft 302kts
03-Feb-19 12:50 34.083965 -117.149397 208 12081ft 288kts
03-Feb-19 12:51 34.013180 -117.187276 208 12040ft 263kts
03-Feb-19 12:52 33.960184 -117.246978 227 9522ft 299kts
03-Feb-19 12:53 33.907121 -117.321723 233 8117ft 271kts
03-Feb-19 12:54 33.863831 -117.382670 234 8128ft 235kts
03-Feb-19 12:55 33.823150 -117.440073 232 8087ft 227kts
03-Feb-19 12:56 33.798867 -117.508461 257 7543ft 225kts
03-Feb-19 12:57 33.801331 -117.582749 272 7449ft 210kts
03-Feb-19 12:58 33.802447 -117.643992 272 6480ft 182kts
03-Feb-19 12:59 33.826457 -117.691031 321 4964ft 185kts
03-Feb-19 13:00 33.858376 -117.733890 259 3938ft 183kts
03-Feb-19 13:02 33.822291 -117.776414 212 3996ft 182kts
03-Feb-19 13:03 33.780602 -117.802526 208 3668ft 172kts
03-Feb-19 13:04 33.739695 -117.828378 207 2156ft 150kts
03-Feb-19 13:05 33.704423 -117.850586 205 796ft 131kts
03-Feb-19 13:06 33.675282 -117.869087 207 53ft 26kts
03-Feb-19 13:07 33.669427 -117.871957 138 53ft 17kts
03-Feb-19 13:08 33.672552 -117.867873 32 53ft 22kts
03-Feb-19 13:09 33.677077 -117.864261 119 54ft 5kts

Navigation Log

Ident Type
Flight plan parsing failed, navigation log unavailable